createdAt,value
2019-03-30T00:04:13.313Z,101443.58
2019-03-30T00:09:34.525Z,101438.34
2019-03-30T00:14:55.401Z,101432.02
2019-03-30T00:20:16.678Z,101435.69
2019-03-30T00:25:37.494Z,101430.70
2019-03-30T00:30:58.610Z,101428.51
2019-03-30T00:36:19.835Z,101419.15
2019-03-30T00:41:40.750Z,101415.03
2019-03-30T00:47:01.987Z,101411.59
2019-03-30T00:52:22.789Z,101404.17
2019-03-30T00:57:44.407Z,101404.20
2019-03-30T01:03:05.604Z,101396.53
2019-03-30T01:08:26.676Z,101389.00
2019-03-30T01:13:47.795Z,101384.75
2019-03-30T01:19:08.891Z,101378.30
2019-03-30T01:24:30.059Z,101377.44
2019-03-30T01:29:51.167Z,101365.98
2019-03-30T01:35:12.152Z,101361.98
2019-03-30T01:40:33.349Z,101360.50
2019-03-30T01:45:54.635Z,101356.49
2019-03-30T01:51:15.970Z,101352.97
2019-03-30T01:56:37.175Z,101353.22
2019-03-30T02:01:58.091Z,101345.56
2019-03-30T02:07:19.392Z,101345.89
2019-03-30T02:12:40.426Z,101342.46
2019-03-30T02:18:01.266Z,101339.02
2019-03-30T02:23:22.427Z,101330.47
2019-03-30T02:28:43.599Z,101337.27
2019-03-30T02:34:05.076Z,101331.60
2019-03-30T02:39:26.483Z,101324.90
2019-03-30T02:44:47.758Z,101312.53
2019-03-30T02:50:09.042Z,101325.70
2019-03-30T02:55:29.937Z,101328.02
2019-03-30T03:00:50.574Z,101323.17
2019-03-30T03:06:12.761Z,101331.87
2019-03-30T03:11:33.562Z,101325.45
2019-03-30T03:16:54.864Z,101326.86
2019-03-30T03:22:15.965Z,101330.77
2019-03-30T03:27:36.737Z,101321.72
2019-03-30T03:32:57.663Z,101311.55
2019-03-30T03:38:46.386Z,101310.88
2019-03-30T03:44:07.670Z,101303.92
2019-03-30T03:49:29.035Z,101296.52
2019-03-30T03:54:51.907Z,101289.55
2019-03-30T04:00:13.589Z,101288.44
2019-03-30T04:05:38.020Z,101289.91
2019-03-30T04:10:59.544Z,101288.06
2019-03-30T04:16:20.422Z,101281.55
2019-03-30T04:21:44.304Z,101278.35
2019-03-30T04:27:04.032Z,101277.66
2019-03-30T04:32:25.013Z,101280.61
2019-03-30T04:37:46.181Z,101273.61
2019-03-30T04:43:07.145Z,101258.66
2019-03-30T04:48:29.623Z,101259.95
2019-03-30T04:53:50.723Z,101257.42
2019-03-30T04:59:11.857Z,101251.09
2019-03-30T05:04:32.827Z,101250.84
2019-03-30T05:09:53.928Z,101256.45
2019-03-30T05:15:14.891Z,101249.80
2019-03-30T05:20:36.051Z,101251.05
2019-03-30T05:25:57.415Z,101250.65
2019-03-30T05:31:18.775Z,101248.72
2019-03-30T05:36:39.792Z,101246.92
2019-03-30T05:42:01.139Z,101247.73
2019-03-30T05:47:22.381Z,101244.20
2019-03-30T05:52:43.440Z,101247.58
2019-03-30T05:58:04.580Z,101254.05
2019-03-30T06:03:25.843Z,101248.36
2019-03-30T06:08:46.584Z,101245.91
2019-03-30T06:14:07.400Z,101244.16
2019-03-30T06:19:28.139Z,101248.27
2019-03-30T06:24:49.359Z,101246.13
2019-03-30T06:30:24.077Z,101247.14
2019-03-30T06:35:44.743Z,101242.07
2019-03-30T06:41:05.461Z,101236.11
2019-03-30T06:46:26.651Z,101238.95
2019-03-30T06:51:47.623Z,101234.95
2019-03-30T06:57:08.393Z,101235.70
2019-03-30T07:02:29.509Z,101239.72
2019-03-30T07:07:51.383Z,101242.26
2019-03-30T07:13:12.470Z,101245.02
2019-03-30T07:18:35.325Z,101244.36
2019-03-30T07:23:56.233Z,101238.60
2019-03-30T07:29:17.325Z,101230.09
2019-03-30T07:34:41.582Z,101230.98
2019-03-30T07:40:01.165Z,101226.81
2019-03-30T07:45:22.541Z,101227.03
2019-03-30T07:50:43.881Z,101235.50
2019-03-30T07:56:08.592Z,101221.96
2019-03-30T08:01:28.430Z,101222.66
2019-03-30T08:06:49.508Z,101215.08
2019-03-30T08:12:10.663Z,101212.12
2019-03-30T08:17:31.975Z,101204.76
2019-03-30T08:22:53.148Z,101208.94
2019-03-30T08:28:14.508Z,101211.03
2019-03-30T08:33:35.449Z,101212.45
2019-03-30T08:38:56.585Z,101204.95
2019-03-30T08:44:17.608Z,101207.84
2019-03-30T08:49:38.729Z,101203.64
2019-03-30T08:54:59.917Z,101195.30
2019-03-30T09:00:36.619Z,101196.01
2019-03-30T09:05:57.547Z,101192.82
2019-03-30T09:11:18.687Z,101186.84
2019-03-30T09:16:39.949Z,101185.83
2019-03-30T09:22:00.845Z,101187.16
2019-03-30T09:27:22.089Z,101174.78
2019-03-30T09:32:45.045Z,101165.47
2019-03-30T09:38:05.530Z,101167.16
2019-03-30T09:43:26.966Z,101167.31
2019-03-30T09:48:48.132Z,101158.45
2019-03-30T09:54:22.821Z,101157.05
2019-03-30T09:59:32.059Z,101151.58
2019-03-30T10:04:53.151Z,101147.12
2019-03-30T10:10:14.587Z,101140.52
2019-03-30T10:15:35.463Z,101133.11
2019-03-30T10:20:56.067Z,101120.81
2019-03-30T10:26:17.498Z,101109.28
2019-03-30T10:31:38.453Z,101105.38
2019-03-30T10:37:00.399Z,101106.62
2019-03-30T10:42:21.139Z,101095.98
2019-03-30T10:47:42.099Z,101096.81
2019-03-30T10:53:03.262Z,101090.89
2019-03-30T10:58:24.513Z,101081.61
2019-03-30T11:03:45.737Z,101069.95
2019-03-30T11:22:17.203Z,101040.34
2019-03-30T11:27:39.526Z,101035.16
2019-03-30T11:33:00.380Z,101036.83
2019-03-30T11:38:22.592Z,101022.65
2019-03-30T11:43:43.630Z,101016.06
2019-03-30T11:49:04.622Z,101016.94
2019-03-30T11:54:25.881Z,101007.31
2019-03-30T11:59:47.105Z,100997.98
2019-03-30T12:05:08.880Z,100993.11
2019-03-30T12:10:30.526Z,100970.50
2019-03-30T12:15:51.197Z,100974.25
2019-03-30T12:21:12.176Z,100962.86
2019-03-30T12:26:33.316Z,100948.08
2019-03-30T12:31:54.582Z,100943.69
2019-03-30T12:37:15.607Z,100934.98
2019-03-30T12:42:36.891Z,100922.58
2019-03-30T12:47:57.960Z,100916.02
2019-03-30T12:53:19.438Z,100912.95
2019-03-30T12:58:40.687Z,100910.23
2019-03-30T13:04:01.904Z,100901.87
2019-03-30T13:09:22.939Z,100898.71
2019-03-30T13:14:44.139Z,100899.19
2019-03-30T13:20:06.084Z,100886.98
2019-03-30T13:25:26.945Z,100883.81
2019-03-30T13:30:47.868Z,100874.55
2019-03-30T13:36:10.735Z,100864.09
2019-03-30T13:41:31.544Z,100869.16
2019-03-30T13:46:52.427Z,100853.84
2019-03-30T13:52:13.612Z,100849.98
2019-03-30T13:57:34.485Z,100839.41
2019-03-30T14:02:55.467Z,100838.80
2019-03-30T14:08:17.583Z,100823.40
2019-03-30T14:13:38.745Z,100818.45
2019-03-30T14:19:00.218Z,100809.30
2019-03-30T14:24:21.269Z,100797.61
2019-03-30T14:29:42.298Z,100791.47
2019-03-30T14:35:03.888Z,100782.11
2019-03-30T14:40:24.921Z,100778.19
2019-03-30T14:45:46.095Z,100770.67
2019-03-30T14:51:07.288Z,100758.83
2019-03-30T14:56:28.539Z,100754.77
2019-03-30T15:08:07.072Z,100744.53
2019-03-30T15:13:27.823Z,100750.27
2019-03-30T15:18:48.944Z,100744.33
2019-03-30T15:24:10.338Z,100729.39
2019-03-30T15:29:31.418Z,100734.48
2019-03-30T15:34:52.925Z,100735.97
2019-03-30T15:40:15.804Z,100727.52
2019-03-30T15:45:37.289Z,100722.12
2019-03-30T15:50:58.245Z,100708.84
2019-03-30T15:56:19.733Z,100712.91
2019-03-30T16:01:40.794Z,100702.01
2019-03-30T16:07:02.084Z,100695.80
2019-03-30T16:12:24.070Z,100693.66
2019-03-30T16:17:45.507Z,100688.75
2019-03-30T16:23:06.675Z,100687.62
2019-03-30T16:28:27.975Z,100669.52
2019-03-30T16:33:49.034Z,100672.39
2019-03-30T16:39:10.101Z,100677.48
2019-03-30T16:44:31.007Z,100671.63
2019-03-30T16:49:51.544Z,100677.39
2019-03-30T16:55:12.677Z,100665.98
2019-03-30T17:00:33.838Z,100665.80
2019-03-30T17:05:55.702Z,100664.44
2019-03-30T17:11:16.282Z,100660.41
2019-03-30T17:16:37.539Z,100660.64
2019-03-30T17:21:58.548Z,100644.20
2019-03-30T17:27:19.651Z,100645.44
2019-03-30T17:32:40.547Z,100646.85
2019-03-30T17:38:01.438Z,100650.08
2019-03-30T17:43:22.679Z,100651.13
2019-03-30T17:48:43.896Z,100646.77
2019-03-30T17:54:05.253Z,100648.46
2019-03-30T17:59:27.337Z,100647.79
2019-03-30T18:04:48.335Z,100645.56
2019-03-30T18:10:10.913Z,100651.73
2019-03-30T18:15:34.542Z,100649.09
2019-03-30T18:20:55.363Z,100650.06
2019-03-30T18:26:16.607Z,100655.88
2019-03-30T18:31:38.640Z,100653.52
2019-03-30T18:36:59.899Z,100659.19
2019-03-30T18:42:20.673Z,100653.52
2019-03-30T18:47:41.695Z,100655.50
2019-03-30T18:53:02.770Z,100670.34
2019-03-30T18:58:24.156Z,100663.32
2019-03-30T19:03:44.887Z,100667.72
2019-03-30T19:09:06.886Z,100669.95
2019-03-30T19:14:27.852Z,100670.20
2019-03-30T19:19:50.284Z,100670.38
2019-03-30T19:25:11.544Z,100671.93
2019-03-30T19:30:32.687Z,100669.61
2019-03-30T19:35:53.432Z,100675.09
2019-03-30T19:41:14.520Z,100672.52
2019-03-30T19:46:35.567Z,100669.77
2019-03-30T19:51:56.289Z,100664.94
2019-03-30T19:57:17.477Z,100664.01
2019-03-30T20:02:38.724Z,100665.75
2019-03-30T20:08:11.441Z,100669.74
2019-03-30T20:13:22.653Z,100667.01
2019-03-30T20:18:43.204Z,100663.66
2019-03-30T20:24:04.771Z,100660.23
2019-03-30T20:29:26.117Z,100657.17
2019-03-30T20:34:47.333Z,100658.45
2019-03-30T20:40:09.034Z,100649.33
2019-03-30T20:45:30.110Z,100638.05
2019-03-30T20:50:51.239Z,100633.27
2019-03-30T20:56:11.886Z,100633.06
2019-03-30T21:01:32.963Z,100631.58
2019-03-30T21:06:54.340Z,100633.43
2019-03-30T21:12:15.584Z,100664.66
2019-03-30T21:17:36.653Z,100679.42
2019-03-30T21:22:57.875Z,100674.34
2019-03-30T21:28:19.056Z,100676.38
2019-03-30T21:33:40.151Z,100668.80
2019-03-30T21:39:01.139Z,100669.46
2019-03-30T21:44:22.626Z,100669.65
2019-03-30T21:49:43.751Z,100678.05
2019-03-30T21:55:05.146Z,100679.58
2019-03-30T22:00:37.259Z,100676.36
2019-03-30T22:05:58.184Z,100681.09
2019-03-30T22:11:19.159Z,100678.38
2019-03-30T22:16:40.148Z,100672.33
2019-03-30T22:22:01.416Z,100684.30
2019-03-30T22:27:22.221Z,100676.53
2019-03-30T22:32:43.619Z,100681.23
2019-03-30T22:38:04.694Z,100679.73
2019-03-30T22:43:25.590Z,100672.64
2019-03-30T22:48:46.746Z,100676.64
2019-03-30T22:54:07.927Z,100686.89
2019-03-30T22:59:29.163Z,100689.55
2019-03-30T23:04:50.178Z,100684.67
2019-03-30T23:10:10.979Z,100692.42
2019-03-30T23:15:31.907Z,100682.81
2019-03-30T23:20:53.277Z,100678.77
2019-03-30T23:26:14.453Z,100686.99
2019-03-30T23:31:35.598Z,100685.00
2019-03-30T23:36:56.607Z,100680.77
2019-03-30T23:42:17.353Z,100677.19
2019-03-30T23:47:38.510Z,100679.38
2019-03-30T23:53:00.522Z,100679.78
2019-03-30T23:58:21.698Z,100685.98
